createdAt,value
2018-04-09T00:00:10.478Z,6.14
2018-04-09T00:01:10.728Z,6.07
2018-04-09T00:02:10.714Z,6.05
2018-04-09T00:03:10.700Z,6.1
2018-04-09T00:04:10.430Z,6.07
2018-04-09T00:05:10.413Z,6.05
2018-04-09T00:06:10.405Z,5.99
2018-04-09T00:07:10.646Z,5.98
2018-04-09T00:08:10.120Z,5.92
2018-04-09T00:09:10.364Z,6.02
2018-04-09T00:10:10.091Z,5.88
2018-04-09T00:11:10.347Z,5.92
2018-04-09T00:12:10.328Z,5.95
2018-04-09T00:13:10.569Z,5.96
2018-04-09T00:14:10.301Z,5.91
2018-04-09T00:15:10.288Z,5.89
2018-04-09T00:16:10.283Z,5.96
2018-04-09T00:17:10.264Z,5.98
2018-04-09T00:18:10.503Z,5.88
2018-04-09T00:19:09.979Z,5.89
2018-04-09T00:20:10.493Z,5.92
2018-04-09T00:21:10.468Z,5.8
2018-04-09T00:22:10.195Z,5.81
2018-04-09T00:23:10.186Z,5.78
2018-04-09T00:24:10.172Z,5.78
2018-04-09T00:25:10.416Z,5.8
2018-04-09T00:26:10.142Z,5.78
2018-04-09T00:27:10.402Z,5.72
2018-04-09T00:28:10.394Z,5.75
2018-04-09T00:29:10.105Z,5.72
2018-04-09T00:30:10.097Z,5.69
2018-04-09T00:31:10.081Z,5.77
2018-04-09T00:32:10.075Z,5.75
2018-04-09T00:33:10.312Z,5.84
2018-04-09T00:34:10.044Z,5.75
2018-04-09T00:35:10.034Z,5.78
2018-04-09T00:36:10.020Z,5.75
2018-04-09T00:37:10.263Z,5.8
2018-04-09T00:38:10.247Z,5.73
2018-04-09T00:39:09.983Z,5.81
2018-04-09T00:40:09.981Z,5.73
2018-04-09T00:41:09.969Z,5.73
2018-04-09T00:42:09.683Z,5.6
2018-04-09T00:43:10.182Z,5.7
2018-04-09T00:44:09.663Z,5.67
2018-04-09T00:45:10.162Z,5.66
2018-04-09T00:46:09.890Z,5.59
2018-04-09T00:47:10.134Z,5.63
2018-04-09T00:48:09.863Z,5.59
2018-04-09T00:49:10.106Z,5.55
2018-04-09T00:50:10.100Z,5.49
2018-04-09T00:51:10.083Z,5.54
2018-04-09T00:52:09.808Z,5.57
2018-04-09T00:53:09.801Z,5.49
2018-04-09T00:54:09.528Z,5.59
2018-04-09T00:55:10.029Z,5.51
2018-04-09T00:56:09.501Z,5.48
2018-04-09T00:57:09.746Z,5.54
2018-04-09T00:58:09.731Z,5.51
2018-04-09T00:59:09.460Z,5.48
2018-04-09T01:00:09.710Z,5.48
2018-04-09T01:01:09.943Z,5.51
2018-04-09T01:02:09.684Z,5.54
2018-04-09T01:03:09.672Z,5.54
2018-04-09T01:04:09.659Z,5.49
2018-04-09T01:05:09.640Z,5.57
2018-04-09T01:06:09.369Z,5.57
2018-04-09T01:07:09.863Z,5.6
2018-04-09T01:08:09.604Z,5.6
2018-04-09T01:09:09.331Z,5.48
2018-04-09T01:10:09.314Z,5.52
2018-04-09T01:11:09.817Z,5.6
2018-04-09T01:12:09.799Z,5.55
2018-04-09T01:13:09.276Z,5.63
2018-04-09T01:14:09.524Z,5.62
2018-04-09T01:15:09.761Z,5.59
2018-04-09T01:16:09.497Z,5.66
2018-04-09T01:17:09.478Z,5.67
2018-04-09T01:18:09.214Z,5.6
2018-04-09T01:19:09.452Z,5.67
2018-04-09T01:20:09.441Z,5.67
2018-04-09T01:21:09.169Z,5.67
2018-04-09T01:22:09.408Z,5.66
2018-04-09T01:23:09.664Z,5.63
2018-04-09T01:24:09.391Z,5.6
2018-04-09T01:25:09.377Z,5.67
2018-04-09T01:26:09.366Z,5.59
2018-04-09T01:27:09.602Z,5.64
2018-04-09T01:28:09.595Z,5.66
2018-04-09T01:29:09.320Z,5.6
2018-04-09T01:30:09.567Z,5.64
2018-04-09T01:31:09.305Z,5.63
2018-04-09T01:32:09.543Z,5.63
2018-04-09T01:33:09.011Z,5.62
2018-04-09T01:34:09.514Z,5.66
2018-04-09T01:35:09.283Z,5.66
2018-04-09T01:36:09.231Z,5.49
2018-04-09T01:37:09.475Z,5.64
2018-04-09T01:38:09.205Z,5.55
2018-04-09T01:39:09.199Z,5.57
2018-04-09T01:40:09.178Z,5.52
2018-04-09T01:41:09.161Z,5.59
2018-04-09T01:42:09.155Z,5.48
2018-04-09T01:43:09.134Z,5.54
2018-04-09T01:44:09.377Z,5.51
2018-04-09T01:45:09.369Z,5.49
2018-04-09T01:46:09.354Z,5.44
2018-04-09T01:47:09.340Z,5.48
2018-04-09T01:48:09.072Z,5.49
2018-04-09T01:49:09.062Z,5.46
2018-04-09T01:50:09.043Z,5.52
2018-04-09T01:51:09.028Z,5.46
2018-04-09T01:52:08.762Z,5.48
2018-04-09T01:53:08.748Z,5.52
2018-04-09T01:54:09.248Z,5.46
2018-04-09T01:55:09.234Z,5.45
2018-04-09T01:56:08.964Z,5.55
2018-04-09T01:57:08.949Z,5.52
2018-04-09T01:58:08.681Z,5.46
2018-04-09T01:59:08.925Z,5.44
2018-04-09T02:00:09.168Z,5.48
2018-04-09T02:01:08.898Z,5.44
2018-04-09T02:02:08.886Z,5.39
2018-04-09T02:03:09.127Z,5.46
2018-04-09T02:04:08.863Z,5.37
2018-04-09T02:05:08.847Z,5.41
2018-04-09T02:06:09.090Z,5.36
2018-04-09T02:07:08.821Z,5.44
2018-04-09T02:08:08.801Z,5.41
2018-04-09T02:09:08.530Z,5.45
2018-04-09T02:10:08.782Z,5.41
2018-04-09T02:11:08.763Z,5.45
2018-04-09T02:12:08.750Z,5.37
2018-04-09T02:13:08.989Z,5.46
2018-04-09T02:14:08.727Z,5.46
2018-04-09T02:15:08.706Z,5.49
2018-04-09T02:16:08.442Z,5.39
2018-04-09T02:17:08.938Z,5.34
2018-04-09T02:18:08.664Z,5.44
2018-04-09T02:19:08.401Z,5.36
2018-04-09T02:20:08.647Z,5.37
2018-04-09T02:21:08.889Z,5.41
2018-04-09T02:22:08.618Z,5.31
2018-04-09T02:23:08.611Z,5.36
2018-04-09T02:24:08.855Z,5.37
2018-04-09T02:25:08.836Z,5.33
2018-04-09T02:26:08.570Z,5.39
2018-04-09T02:27:08.553Z,5.34
2018-04-09T02:28:08.539Z,5.34
2018-04-09T02:29:08.786Z,5.36
2018-04-09T02:30:08.775Z,5.42
2018-04-09T02:31:08.497Z,5.36
2018-04-09T02:32:08.752Z,5.34
2018-04-09T02:33:08.473Z,5.36
2018-04-09T02:34:08.726Z,5.41
2018-04-09T02:35:08.713Z,5.39
2018-04-09T02:36:08.437Z,5.39
2018-04-09T02:37:08.423Z,5.42
2018-04-09T02:38:08.404Z,5.33
2018-04-09T02:39:08.392Z,5.41
2018-04-09T02:40:08.118Z,5.39
2018-04-09T02:41:08.374Z,5.31
2018-04-09T02:42:08.354Z,5.3
2018-04-09T02:43:08.339Z,5.42
2018-04-09T02:44:08.327Z,5.42
2018-04-09T02:45:08.309Z,5.33
2018-04-09T02:46:08.040Z,5.39
2018-04-09T02:47:08.292Z,5.26
2018-04-09T02:48:08.272Z,5.18
2018-04-09T02:49:08.528Z,5.24
2018-04-09T02:50:08.502Z,5.2
2018-04-09T02:51:08.228Z,5.23
2018-04-09T02:52:08.214Z,5.36
2018-04-09T02:53:08.460Z,5.24
2018-04-09T02:54:07.931Z,5.2
2018-04-09T02:55:08.433Z,5.2
2018-04-09T02:56:08.423Z,5.37
2018-04-09T02:57:08.409Z,5.34
2018-04-09T02:58:08.133Z,5.33
2018-04-09T02:59:08.378Z,5.39
2018-04-09T03:00:08.114Z,5.36
2018-04-09T03:01:07.836Z,5.36
2018-04-09T03:02:08.338Z,5.24
2018-04-09T03:03:08.322Z,5.27
2018-04-09T03:04:08.057Z,5.28
2018-04-09T03:05:08.051Z,5.24
2018-04-09T03:06:07.770Z,5.31
2018-04-09T03:07:07.753Z,5.33
2018-04-09T03:08:08.010Z,5.27
2018-04-09T03:09:08.252Z,5.24
2018-04-09T03:10:07.980Z,5.26
2018-04-09T03:11:07.700Z,5.24
2018-04-09T03:12:07.942Z,5.24
2018-04-09T03:13:08.185Z,5.26
2018-04-09T03:14:08.178Z,5.21
2018-04-09T03:15:07.647Z,5.2
2018-04-09T03:16:07.892Z,5.15
2018-04-09T03:17:07.879Z,5.18
2018-04-09T03:18:07.870Z,5.16
2018-04-09T03:19:07.593Z,5.2
2018-04-09T03:20:07.838Z,5.21
2018-04-09T03:21:07.821Z,5.21
2018-04-09T03:22:07.809Z,5.21
2018-04-09T03:23:08.059Z,5.15
2018-04-09T03:24:07.784Z,5.24
2018-04-09T03:25:08.025Z,5.2
2018-04-09T03:26:07.763Z,5.18
2018-04-09T03:27:07.744Z,5.2
2018-04-09T03:28:07.729Z,5.18
2018-04-09T03:29:07.712Z,5.15
2018-04-09T03:30:07.968Z,5.18
2018-04-09T03:31:07.963Z,5.18
2018-04-09T03:32:07.672Z,5.18
2018-04-09T03:33:07.402Z,5.12
2018-04-09T03:34:07.654Z,5.16
2018-04-09T03:35:07.894Z,5.15
2018-04-09T03:36:07.620Z,5.26
2018-04-09T03:37:07.861Z,5.28
2018-04-09T03:38:07.904Z,5.2
2018-04-09T03:39:07.834Z,5.24
2018-04-09T03:40:07.565Z,5.26
2018-04-09T03:41:07.292Z,5.26
2018-04-09T03:42:07.793Z,5.23
2018-04-09T03:43:07.531Z,5.26
2018-04-09T03:44:07.258Z,5.28
2018-04-09T03:45:07.502Z,5.27
2018-04-09T03:46:07.487Z,5.23
2018-04-09T03:47:07.747Z,5.21
2018-04-09T03:48:07.455Z,5.18
2018-04-09T03:49:07.700Z,5.2
2018-04-09T03:50:07.685Z,5.16
2018-04-09T03:51:07.411Z,5.13
2018-04-09T03:52:07.398Z,5.15
2018-04-09T03:53:07.641Z,5.1
2018-04-09T03:54:07.374Z,5.05
2018-04-09T03:55:07.361Z,5.06
2018-04-09T03:56:07.340Z,5.08
2018-04-09T03:57:07.593Z,5.05
2018-04-09T03:58:07.312Z,4.92
2018-04-09T03:59:07.056Z,4.94
2018-04-09T04:00:07.298Z,4.92
2018-04-09T04:01:07.277Z,4.88
2018-04-09T04:02:07.515Z,4.88
2018-04-09T04:03:07.246Z,4.9
2018-04-09T04:04:07.234Z,4.85
2018-04-09T04:05:06.965Z,4.83
2018-04-09T04:06:07.209Z,4.87
2018-04-09T04:07:07.201Z,4.85
2018-04-09T04:08:07.444Z,4.87
2018-04-09T04:09:07.523Z,4.78
2018-04-09T04:10:07.203Z,4.87
2018-04-09T04:11:07.143Z,4.79
2018-04-09T04:12:07.386Z,4.79
2018-04-09T04:13:07.109Z,4.85
2018-04-09T04:14:07.353Z,4.84
2018-04-09T04:15:07.088Z,4.85
2018-04-09T04:16:07.071Z,4.83
2018-04-09T04:17:07.315Z,4.76
2018-04-09T04:18:07.045Z,4.75
2018-04-09T04:19:06.771Z,4.78
2018-04-09T04:20:07.017Z,4.76
2018-04-09T04:21:07.257Z,4.88
2018-04-09T04:22:07.244Z,4.75
2018-04-09T04:23:06.714Z,4.83
2018-04-09T04:24:06.960Z,4.74
2018-04-09T04:25:07.204Z,4.75
2018-04-09T04:26:07.204Z,4.75
2018-04-09T04:27:06.664Z,4.79
2018-04-09T04:28:06.906Z,4.68
2018-04-09T04:29:07.141Z,4.66
2018-04-09T04:30:06.619Z,4.68
2018-04-09T04:31:07.210Z,4.75
2018-04-09T04:32:06.846Z,4.75
2018-04-09T04:33:06.872Z,4.71
2018-04-09T04:34:06.821Z,4.76
2018-04-09T04:35:06.801Z,4.69
2018-04-09T04:36:07.049Z,4.69
2018-04-09T04:37:07.032Z,4.71
2018-04-09T04:38:07.031Z,4.79
2018-04-09T04:39:07.013Z,4.78
2018-04-09T04:40:06.734Z,4.66
2018-04-09T04:41:06.730Z,4.75
2018-04-09T04:42:07.024Z,4.74
2018-04-09T04:43:06.961Z,4.79
2018-04-09T04:44:06.682Z,4.79
2018-04-09T04:45:06.404Z,4.92
2018-04-09T04:46:06.649Z,4.97
2018-04-09T04:47:06.635Z,5
2018-04-09T04:48:06.622Z,4.97
2018-04-09T04:49:06.351Z,5.06
2018-04-09T04:50:06.850Z,5.09
2018-04-09T04:51:06.325Z,5.12
2018-04-09T04:52:06.831Z,5.1
2018-04-09T04:53:06.298Z,5.13
2018-04-09T04:54:06.796Z,5.21
2018-04-09T04:55:06.522Z,5.18
2018-04-09T04:56:06.570Z,5.16
2018-04-09T04:57:06.500Z,5.13
2018-04-09T04:58:06.482Z,5.13
2018-04-09T04:59:06.476Z,5.21
2018-04-09T05:00:06.460Z,5.16
2018-04-09T05:01:06.185Z,5.26
2018-04-09T05:02:06.431Z,5.28
2018-04-09T05:03:06.157Z,5.26
2018-04-09T05:04:06.397Z,5.28
2018-04-09T05:05:06.386Z,5.28
2018-04-09T05:06:06.373Z,5.23
2018-04-09T05:07:06.615Z,5.26
2018-04-09T05:08:06.343Z,5.2
2018-04-09T05:09:06.076Z,5.24
2018-04-09T05:10:06.319Z,5.23
2018-04-09T05:11:06.042Z,5.36
2018-04-09T05:12:06.552Z,5.37
2018-04-09T05:13:06.272Z,5.36
2018-04-09T05:14:06.528Z,5.36
2018-04-09T05:15:06.246Z,5.39
2018-04-09T05:16:06.490Z,5.42
2018-04-09T05:17:06.218Z,5.42
2018-04-09T05:18:06.208Z,5.39
2018-04-09T05:19:06.191Z,5.44
2018-04-09T05:20:06.184Z,5.41
2018-04-09T05:21:05.905Z,5.51
2018-04-09T05:22:06.411Z,5.48
2018-04-09T05:23:06.139Z,5.54
2018-04-09T05:24:06.138Z,5.59
2018-04-09T05:25:06.104Z,5.62
2018-04-09T05:26:06.102Z,5.63
2018-04-09T05:27:06.082Z,5.62
2018-04-09T05:28:06.067Z,5.67
2018-04-09T05:29:06.059Z,5.72
2018-04-09T05:30:06.036Z,5.7
2018-04-09T05:31:06.021Z,5.72
2018-04-09T05:32:05.775Z,5.73
2018-04-09T05:33:05.739Z,5.78
2018-04-09T05:34:05.987Z,5.73
2018-04-09T05:35:05.973Z,5.78
2018-04-09T05:36:05.959Z,5.85
2018-04-09T05:37:06.213Z,5.87
2018-04-09T05:38:06.193Z,5.95
2018-04-09T05:39:05.921Z,5.98
2018-04-09T05:40:05.909Z,5.96
2018-04-09T05:41:05.888Z,6.02
2018-04-09T05:42:06.143Z,6.07
2018-04-09T05:43:06.123Z,6.14
2018-04-09T05:44:05.844Z,6.14
2018-04-09T05:45:06.093Z,6.28
2018-04-09T05:46:05.565Z,6.37
2018-04-09T05:47:05.819Z,6.42
2018-04-09T05:48:06.104Z,6.49
2018-04-09T05:49:06.045Z,6.43
2018-04-09T05:50:05.773Z,6.57
2018-04-09T05:51:05.757Z,6.57
2018-04-09T05:52:05.745Z,6.51
2018-04-09T05:53:06.040Z,6.58
2018-04-09T05:54:05.973Z,6.61
2018-04-09T05:55:05.444Z,6.72
2018-04-09T05:56:05.950Z,6.75
2018-04-09T05:57:05.933Z,6.68
2018-04-09T05:58:05.919Z,6.72
2018-04-09T05:59:05.649Z,6.83
2018-04-09T06:00:05.380Z,6.79
2018-04-09T06:01:05.631Z,6.8
2018-04-09T06:02:05.614Z,6.83
2018-04-09T06:03:05.339Z,6.91
2018-04-09T06:04:05.847Z,6.9
2018-04-09T06:05:05.835Z,7.05
2018-04-09T06:06:05.818Z,7.05
2018-04-09T06:07:05.290Z,7.05
2018-04-09T06:08:05.790Z,7.15
2018-04-09T06:09:05.522Z,7.21
2018-04-09T06:10:05.766Z,7.29
2018-04-09T06:11:05.238Z,7.3
2018-04-09T06:12:05.485Z,7.34
2018-04-09T06:13:05.473Z,7.39
2018-04-09T06:14:05.458Z,7.48
2018-04-09T06:15:05.450Z,7.39
2018-04-09T06:16:05.504Z,7.51
2018-04-09T06:17:05.166Z,7.52
2018-04-09T06:18:05.409Z,7.55
2018-04-09T06:19:05.661Z,7.64
2018-04-09T06:20:05.431Z,7.78
2018-04-09T06:21:05.378Z,7.75
2018-04-09T06:22:05.359Z,7.91
2018-04-09T06:23:05.348Z,7.85
2018-04-09T06:24:05.082Z,7.95
2018-04-09T06:25:05.588Z,7.98
2018-04-09T06:26:05.315Z,7.96
2018-04-09T06:27:05.575Z,8.04
2018-04-09T06:28:05.546Z,8.24
2018-04-09T06:29:05.278Z,8.26
2018-04-09T06:30:05.268Z,8.28
2018-04-09T06:31:05.002Z,8.47
2018-04-09T06:32:05.507Z,8.61
2018-04-09T06:33:05.234Z,8.67
2018-04-09T06:34:05.222Z,8.74
2018-04-09T06:35:05.211Z,8.89
2018-04-09T06:36:05.195Z,8.87
2018-04-09T06:37:05.444Z,9.05
2018-04-09T06:38:05.174Z,9.23
2018-04-09T06:39:05.165Z,9.52
2018-04-09T06:40:04.891Z,9.92
2018-04-09T06:41:05.405Z,10.26
2018-04-09T06:42:05.129Z,10.72
2018-04-09T06:43:05.118Z,11.34
2018-04-09T06:44:05.105Z,11.88
2018-04-09T06:45:05.353Z,12.4
2018-04-09T06:46:04.824Z,13.07
2018-04-09T06:47:05.074Z,13.72
2018-04-09T06:48:05.064Z,14.41
2018-04-09T06:49:05.314Z,15
2018-04-09T06:50:05.044Z,15.55
2018-04-09T06:51:05.291Z,16.3
2018-04-09T06:52:05.026Z,16.94
2018-04-09T06:53:05.277Z,17.58
2018-04-09T06:54:05.265Z,18.34
2018-04-09T06:55:05.255Z,18.94
2018-04-09T06:56:05.252Z,19.55
2018-04-09T06:57:05.243Z,20.18
2018-04-09T06:58:05.234Z,20.74
2018-04-09T06:59:04.974Z,21.27
2018-04-09T07:00:04.979Z,21.61
2018-04-09T07:01:04.962Z,21.97
2018-04-09T07:02:04.958Z,22.3
2018-04-09T07:03:05.209Z,22.57
2018-04-09T07:04:04.688Z,22.96
2018-04-09T07:05:04.938Z,23.35
2018-04-09T07:06:05.199Z,23.62
2018-04-09T07:07:05.197Z,23.85
2018-04-09T07:08:05.188Z,24.17
2018-04-09T07:09:05.249Z,24.45
2018-04-09T07:10:05.188Z,24.61
2018-04-09T07:11:04.917Z,24.86
2018-04-09T07:12:04.660Z,25.04
2018-04-09T07:13:04.912Z,25.23
2018-04-09T07:14:05.167Z,25.48
2018-04-09T07:15:04.655Z,25.66
2018-04-09T07:16:04.650Z,25.79
2018-04-09T07:17:04.647Z,25.99
2018-04-09T07:18:05.159Z,26
2018-04-09T07:19:04.905Z,26.2
2018-04-09T07:20:05.155Z,26.2
2018-04-09T07:21:04.638Z,26.2
2018-04-09T07:22:04.898Z,26.11
2018-04-09T07:23:04.894Z,25.91
2018-04-09T07:24:04.890Z,25.84
2018-04-09T07:25:05.204Z,25.63
2018-04-09T07:26:04.882Z,25.17
2018-04-09T07:27:04.882Z,24.67
2018-04-09T07:28:04.625Z,24.19
2018-04-09T07:29:04.876Z,23.72
2018-04-09T07:30:04.880Z,23.35
2018-04-09T07:31:04.926Z,22.82
2018-04-09T07:32:05.136Z,22.24
2018-04-09T07:33:04.616Z,21.73
2018-04-09T07:34:04.872Z,21.19
2018-04-09T07:35:04.872Z,20.75
2018-04-09T07:36:04.868Z,20.35
2018-04-09T07:37:05.120Z,19.98
2018-04-09T07:38:05.124Z,19.52
2018-04-09T07:39:04.859Z,19.27
2018-04-09T07:40:05.110Z,18.91
2018-04-09T07:41:05.108Z,18.76
2018-04-09T07:42:04.849Z,18.63
2018-04-09T07:43:05.108Z,18.39
2018-04-09T07:44:04.849Z,18.19
2018-04-09T07:45:04.585Z,17.96
2018-04-09T07:46:04.841Z,17.83
2018-04-09T07:47:05.100Z,17.68
2018-04-09T07:48:04.832Z,17.6
2018-04-09T07:49:04.575Z,17.58
2018-04-09T07:50:04.832Z,17.38
2018-04-09T07:51:05.086Z,17.36
2018-04-09T07:52:05.081Z,17.24
2018-04-09T07:53:05.318Z,17.2
2018-04-09T07:54:04.813Z,17.18
2018-04-09T07:55:04.812Z,17.21
2018-04-09T07:56:04.607Z,17.3
2018-04-09T07:57:04.929Z,17.24
2018-04-09T07:58:04.805Z,17.25
2018-04-09T07:59:05.055Z,17.32
2018-04-09T08:00:05.052Z,17.36
2018-04-09T08:01:05.052Z,17.47
2018-04-09T08:02:04.790Z,17.58
2018-04-09T08:03:04.527Z,17.47
2018-04-09T08:04:04.524Z,17.6
2018-04-09T08:05:04.785Z,17.58
2018-04-09T08:06:04.779Z,17.63
2018-04-09T08:07:05.120Z,17.58
2018-04-09T08:08:04.772Z,17.58
2018-04-09T08:09:05.025Z,17.69
2018-04-09T08:10:04.763Z,17.76
2018-04-09T08:11:04.762Z,17.76
2018-04-09T08:12:05.010Z,17.87
2018-04-09T08:13:04.800Z,17.9
2018-04-09T08:14:04.492Z,17.92
2018-04-09T08:15:04.746Z,17.98
2018-04-09T08:16:04.742Z,18.01
2018-04-09T08:17:04.997Z,18.02
2018-04-09T08:18:04.994Z,18.03
2018-04-09T08:19:04.999Z,18.03
2018-04-09T08:20:04.991Z,18.06
2018-04-09T08:21:04.727Z,18.14
2018-04-09T08:22:04.463Z,18.17
2018-04-09T08:23:04.720Z,18.21
2018-04-09T08:24:04.459Z,18.16
2018-04-09T08:25:04.468Z,18.27
2018-04-09T08:26:04.970Z,18.34
2018-04-09T08:27:04.706Z,18.31
2018-04-09T08:28:04.446Z,18.34
2018-04-09T08:29:04.962Z,18.36
2018-04-09T08:30:04.701Z,18.42
2018-04-09T08:31:04.436Z,18.47
2018-04-09T08:32:04.953Z,18.56
2018-04-09T08:33:04.429Z,18.54
2018-04-09T08:34:04.802Z,18.57
2018-04-09T08:35:04.682Z,18.54
2018-04-09T08:36:04.680Z,18.53
2018-04-09T08:37:04.677Z,18.65
2018-04-09T08:38:04.416Z,18.69
2018-04-09T08:39:04.672Z,18.63
2018-04-09T08:40:04.934Z,18.65
2018-04-09T08:41:04.664Z,18.51
2018-04-09T08:42:04.926Z,18.53
2018-04-09T08:43:04.661Z,18.53
2018-04-09T08:44:04.656Z,18.44
2018-04-09T08:45:04.396Z,18.53
2018-04-09T08:46:04.391Z,18.53
2018-04-09T08:47:04.650Z,18.57
2018-04-09T08:48:04.388Z,18.56
2018-04-09T08:49:04.905Z,18.66
2018-04-09T08:50:04.900Z,18.72
2018-04-09T08:51:04.378Z,18.61
2018-04-09T08:52:04.892Z,18.59
2018-04-09T08:53:04.373Z,18.63
2018-04-09T08:54:04.884Z,18.68
2018-04-09T08:55:04.625Z,18.72
2018-04-09T08:56:04.623Z,18.79
2018-04-09T08:57:04.620Z,18.74
2018-04-09T08:58:04.875Z,18.76
2018-04-09T08:59:04.619Z,18.78
2018-04-09T09:00:04.629Z,18.69
2018-04-09T09:01:04.349Z,18.75
2018-04-09T09:02:04.866Z,18.78
2018-04-09T09:03:04.610Z,18.76
2018-04-09T09:04:04.855Z,18.78
2018-04-09T09:05:04.854Z,18.81
2018-04-09T09:06:04.596Z,18.81
2018-04-09T09:07:04.859Z,18.97
2018-04-09T09:08:04.583Z,18.91
2018-04-09T09:09:04.582Z,19.02
2018-04-09T09:10:04.838Z,18.97
2018-04-09T09:11:04.841Z,18.94
2018-04-09T09:12:04.847Z,18.97
2018-04-09T09:13:04.320Z,18.93
2018-04-09T09:14:04.577Z,19.02
2018-04-09T09:15:04.826Z,18.99
2018-04-09T09:16:04.569Z,18.89
2018-04-09T09:17:04.823Z,18.96
2018-04-09T09:18:04.565Z,18.91
2018-04-09T09:19:04.824Z,18.87
2018-04-09T09:20:04.816Z,18.87
2018-04-09T09:21:04.560Z,18.9
2018-04-09T09:22:04.806Z,18.97
2018-04-09T09:23:04.544Z,18.96
2018-04-09T09:24:04.803Z,18.96
2018-04-09T09:25:04.799Z,19.02
2018-04-09T09:26:04.283Z,19
2018-04-09T09:27:04.280Z,18.96
2018-04-09T09:28:04.277Z,18.97
2018-04-09T09:29:04.791Z,19.02
2018-04-09T09:30:04.529Z,18.9
2018-04-09T09:31:04.525Z,18.87
2018-04-09T09:32:04.530Z,18.9
2018-04-09T09:33:04.267Z,18.86
2018-04-09T09:34:04.791Z,18.76
2018-04-09T09:35:04.516Z,18.74
2018-04-09T09:36:04.772Z,18.76
2018-04-09T09:37:04.525Z,18.76
2018-04-09T09:38:04.515Z,18.82
2018-04-09T09:39:04.516Z,18.9
2018-04-09T09:40:04.762Z,18.81
2018-04-09T09:41:04.502Z,18.78
2018-04-09T09:42:04.767Z,18.71
2018-04-09T09:43:04.494Z,18.69
2018-04-09T09:44:04.238Z,18.65
2018-04-09T09:45:04.748Z,18.54
2018-04-09T09:46:04.496Z,18.53
2018-04-09T09:47:04.744Z,18.56
2018-04-09T09:48:04.764Z,18.54
2018-04-09T09:49:04.483Z,18.54
2018-04-09T09:50:04.481Z,18.53
2018-04-09T09:51:04.732Z,18.6
2018-04-09T09:52:04.732Z,18.61
2018-04-09T09:53:04.473Z,18.68
2018-04-09T09:54:04.475Z,18.79
2018-04-09T09:55:04.462Z,18.89
2018-04-09T09:56:04.463Z,19.02
2018-04-09T09:57:04.726Z,19.05
2018-04-09T09:58:04.713Z,19.19
2018-04-09T09:59:04.711Z,19.24
2018-04-09T10:00:04.459Z,19.34
2018-04-09T10:01:04.448Z,19.56
2018-04-09T10:02:04.454Z,19.56
2018-04-09T10:03:04.452Z,19.57
2018-04-09T10:04:04.700Z,19.61
2018-04-09T10:05:04.442Z,19.56
2018-04-09T10:06:04.701Z,19.67
2018-04-09T10:07:04.706Z,19.79
2018-04-09T10:08:04.433Z,19.79
2018-04-09T10:09:04.687Z,19.93
2018-04-09T10:10:04.172Z,19.93
2018-04-09T10:11:04.427Z,19.85
2018-04-09T10:12:04.682Z,19.85
2018-04-09T10:13:04.167Z,19.87
2018-04-09T10:14:04.161Z,19.79
2018-04-09T10:15:04.161Z,19.98
2018-04-09T10:16:04.416Z,20.05
2018-04-09T10:17:04.671Z,20.16
2018-04-09T10:18:04.415Z,20.37
2018-04-09T10:19:04.409Z,20.54
2018-04-09T10:20:04.152Z,20.6
2018-04-09T10:21:04.153Z,20.72
2018-04-09T10:22:04.666Z,20.76
2018-04-09T10:23:04.148Z,20.79
2018-04-09T10:24:04.147Z,20.79
2018-04-09T10:25:04.399Z,20.94
2018-04-09T10:26:04.410Z,20.97
2018-04-09T10:27:04.659Z,20.9
2018-04-09T10:28:04.393Z,20.97
2018-04-09T10:29:04.652Z,20.86
2018-04-09T10:30:04.657Z,20.86
2018-04-09T10:31:04.136Z,21.04
2018-04-09T10:32:04.398Z,21.04
2018-04-09T10:33:04.397Z,21.06
2018-04-09T10:34:04.393Z,21.09
2018-04-09T10:35:04.398Z,21.08
2018-04-09T10:36:04.127Z,21.12
2018-04-09T10:37:04.418Z,20.97
2018-04-09T10:38:04.387Z,20.97
2018-04-09T10:39:04.380Z,20.86
2018-04-09T10:40:04.383Z,20.83
2018-04-09T10:41:04.823Z,20.71
2018-04-09T10:42:04.380Z,20.67
2018-04-09T10:43:04.407Z,20.56
2018-04-09T10:44:04.123Z,20.4
2018-04-09T10:45:04.382Z,20.38
2018-04-09T10:46:04.379Z,20.32
2018-04-09T10:47:04.638Z,20.3
2018-04-09T10:48:04.633Z,20.29
2018-04-09T10:49:04.397Z,20.26
2018-04-09T10:50:04.383Z,20.2
2018-04-09T10:51:04.635Z,20.1
2018-04-09T10:52:04.376Z,20.16
2018-04-09T10:53:04.368Z,20.15
2018-04-09T10:54:04.637Z,20.16
2018-04-09T10:55:04.625Z,20.25
2018-04-09T10:56:04.368Z,20.3
2018-04-09T10:57:04.368Z,20.3
2018-04-09T10:58:04.644Z,20.35
2018-04-09T10:59:04.445Z,20.37
2018-04-09T11:00:04.727Z,20.29
2018-04-09T11:01:04.104Z,20.32
2018-04-09T11:02:04.442Z,20.26
2018-04-09T11:03:04.515Z,20.34
2018-04-09T11:04:04.669Z,20.29
2018-04-09T11:05:04.613Z,20.35
2018-04-09T11:06:04.100Z,20.23
2018-04-09T11:07:04.357Z,20.12
2018-04-09T11:08:04.611Z,20.15
2018-04-09T11:09:04.625Z,20.16
2018-04-09T11:10:04.095Z,20.08
2018-04-09T11:11:04.350Z,20.1
2018-04-09T11:12:04.350Z,20.04
2018-04-09T11:13:04.353Z,19.98
2018-04-09T11:14:04.352Z,20.05
2018-04-09T11:15:04.602Z,20.08
2018-04-09T11:16:04.353Z,20.02
2018-04-09T11:17:04.613Z,20.02
2018-04-09T11:18:04.598Z,20.05
2018-04-09T11:19:04.342Z,20.19
2018-04-09T11:20:04.342Z,20.25
2018-04-09T11:21:04.345Z,20.32
2018-04-09T11:22:04.342Z,20.49
2018-04-09T11:23:04.596Z,20.53
2018-04-09T11:24:04.080Z,20.53
2018-04-09T11:25:04.078Z,20.57
2018-04-09T11:26:04.334Z,20.61
2018-04-09T11:27:04.603Z,20.58
2018-04-09T11:28:04.339Z,20.58
2018-04-09T11:29:04.592Z,20.6
2018-04-09T11:30:04.594Z,20.58
2018-04-09T11:31:04.331Z,20.54
2018-04-09T11:32:04.074Z,20.49
2018-04-09T11:33:04.582Z,20.48
2018-04-09T11:34:04.597Z,20.38
2018-04-09T11:35:04.329Z,20.29
2018-04-09T11:36:04.332Z,20.32
2018-04-09T11:37:04.344Z,20.16
2018-04-09T11:38:04.076Z,20.16
2018-04-09T11:39:04.337Z,20.02
2018-04-09T11:40:04.074Z,20.08
2018-04-09T11:41:04.580Z,20.08
2018-04-09T11:42:04.071Z,20.08
2018-04-09T11:43:04.322Z,20.16
2018-04-09T11:44:04.069Z,20.04
2018-04-09T11:45:04.326Z,20.05
2018-04-09T11:46:04.319Z,20.04
2018-04-09T11:47:04.061Z,20.12
2018-04-09T11:48:04.061Z,20.16
2018-04-09T11:49:04.322Z,20.15
2018-04-09T11:50:04.062Z,20.16
2018-04-09T11:51:04.316Z,20.16
2018-04-09T11:52:04.061Z,20.22
2018-04-09T11:53:04.571Z,20.18
2018-04-09T11:54:04.310Z,20.02
2018-04-09T11:55:04.308Z,20.08
2018-04-09T11:56:04.054Z,20.1
2018-04-09T11:57:04.562Z,20.08
2018-04-09T11:58:04.053Z,20.01
2018-04-09T11:59:04.053Z,20.02
2018-04-09T12:00:04.574Z,19.95
2018-04-09T12:01:04.305Z,20
2018-04-09T12:02:04.048Z,20.02
2018-04-09T12:03:04.048Z,20.02
2018-04-09T12:04:04.303Z,19.97
2018-04-09T12:05:04.307Z,20.04
2018-04-09T12:06:04.556Z,20.07
2018-04-09T12:07:04.043Z,20.12
2018-04-09T12:08:04.548Z,20.16
2018-04-09T12:09:04.296Z,20.27
2018-04-09T12:10:04.297Z,20.38
2018-04-09T12:11:04.292Z,20.4
2018-04-09T12:12:04.296Z,20.44
2018-04-09T12:13:04.040Z,20.46
2018-04-09T12:14:04.545Z,20.42
2018-04-09T12:15:04.294Z,20.53
2018-04-09T12:16:04.546Z,20.63
2018-04-09T12:17:04.290Z,20.67
2018-04-09T12:18:04.291Z,20.74
2018-04-09T12:19:04.034Z,20.72
2018-04-09T12:20:04.297Z,20.67
2018-04-09T12:21:04.034Z,20.67
2018-04-09T12:22:04.289Z,20.74
2018-04-09T12:23:04.337Z,20.85
2018-04-09T12:24:04.029Z,20.83
2018-04-09T12:25:04.284Z,20.9
2018-04-09T12:26:04.284Z,21.06
2018-04-09T12:27:04.284Z,21.06
2018-04-09T12:28:04.027Z,21.03
2018-04-09T12:29:04.281Z,21.09
2018-04-09T12:30:04.027Z,21.18
2018-04-09T12:31:04.277Z,21.19
2018-04-09T12:32:04.284Z,21.16
2018-04-09T12:33:04.024Z,21.25
2018-04-09T12:34:04.025Z,21.22
2018-04-09T12:35:04.023Z,21.23
2018-04-09T12:36:04.026Z,21.23
2018-04-09T12:37:04.280Z,21.16
2018-04-09T12:38:04.020Z,21.08
2018-04-09T12:39:04.022Z,21.08
2018-04-09T12:40:04.277Z,21.03
2018-04-09T12:41:04.277Z,20.9
2018-04-09T12:42:04.028Z,20.79
2018-04-09T12:43:04.278Z,20.83
2018-04-09T12:44:04.272Z,20.67
2018-04-09T12:45:04.277Z,20.67
2018-04-09T12:46:04.275Z,20.76
2018-04-09T12:47:04.274Z,20.81
2018-04-09T12:48:04.272Z,20.86
2018-04-09T12:49:04.017Z,20.78
2018-04-09T12:50:04.530Z,20.9
2018-04-09T12:51:04.279Z,20.98
2018-04-09T12:52:04.269Z,21.11
2018-04-09T12:53:04.536Z,21.08
2018-04-09T12:54:04.014Z,21.01
2018-04-09T12:55:04.273Z,21.06
2018-04-09T12:56:04.014Z,21.04
2018-04-09T12:57:04.270Z,20.97
2018-04-09T12:58:04.278Z,21.01
2018-04-09T12:59:04.549Z,21.01
2018-04-09T13:00:04.263Z,21.03
2018-04-09T13:02:04.008Z,21.06
2018-04-09T13:03:04.519Z,20.94
2018-04-09T13:04:04.524Z,20.9
2018-04-09T13:05:04.315Z,20.96
2018-04-09T13:06:04.522Z,20.91
2018-04-09T13:07:04.281Z,20.97
2018-04-09T13:08:04.258Z,21
2018-04-09T13:09:04.261Z,20.93